createdAt,value
2017-07-24T00:00:59.561Z,96948.28
2017-07-24T00:05:47.153Z,96951.31
2017-07-24T00:10:33.786Z,96954.82
2017-07-24T00:15:20.453Z,96954.42
2017-07-24T00:20:07.282Z,96933.98
2017-07-24T00:24:54.265Z,96931.13
2017-07-24T00:29:40.994Z,96923.80
2017-07-24T00:34:27.653Z,96920.09
2017-07-24T00:39:14.293Z,96912.06
2017-07-24T00:44:01.044Z,96912.27
2017-07-24T00:48:47.701Z,96898.39
2017-07-24T00:53:35.161Z,96893.53
2017-07-24T00:58:21.881Z,96878.84
2017-07-24T01:03:08.484Z,96870.53
2017-07-24T01:07:55.992Z,96865.14
2017-07-24T01:12:42.628Z,96864.78
2017-07-24T01:17:29.245Z,96857.12
2017-07-24T01:22:15.897Z,96844.09
2017-07-24T01:27:02.553Z,96831.34
2017-07-24T01:31:49.510Z,96824.42
2017-07-24T01:36:36.097Z,96808.41
2017-07-24T01:41:22.735Z,96812.20
2017-07-24T01:46:09.433Z,96813.37
2017-07-24T01:50:56.178Z,96810.46
2017-07-24T01:55:42.826Z,96810.02
2017-07-24T02:00:29.696Z,96809.22
2017-07-24T02:05:16.290Z,96796.17
2017-07-24T02:10:03.905Z,96786.02
2017-07-24T02:14:50.552Z,96784.69
2017-07-24T02:19:37.925Z,96779.44
2017-07-24T02:24:24.604Z,96789.80
2017-07-24T02:29:11.988Z,96808.10
2017-07-24T02:33:58.624Z,96809.64
2017-07-24T02:38:45.225Z,96798.44
2017-07-24T02:43:31.963Z,96805.45
2017-07-24T02:48:18.810Z,96797.95
2017-07-24T02:53:05.716Z,96799.56
2017-07-24T02:57:53.145Z,96796.11
2017-07-24T03:02:39.760Z,96800.73
2017-07-24T03:07:26.601Z,96796.88
2017-07-24T03:12:13.288Z,96793.56
2017-07-24T03:17:00.146Z,96757.31
2017-07-24T03:21:46.785Z,96721.27
2017-07-24T03:26:33.462Z,96706.52
2017-07-24T03:31:20.443Z,96701.06
2017-07-24T03:36:07.236Z,96684.46
2017-07-24T03:40:53.845Z,96663.59
2017-07-24T03:45:40.708Z,96661.02
2017-07-24T03:50:27.451Z,96667.05
2017-07-24T03:55:14.124Z,96667.06
2017-07-24T04:00:01.169Z,96669.81
2017-07-24T04:04:47.759Z,96671.84
2017-07-24T04:09:34.351Z,96670.18
2017-07-24T04:14:20.960Z,96671.18
2017-07-24T04:19:08.329Z,96652.25
2017-07-24T04:23:54.958Z,96644.02
2017-07-24T04:28:41.733Z,96637.26
2017-07-24T04:33:29.122Z,96621.98
2017-07-24T04:38:16.061Z,96610.89
2017-07-24T04:43:02.687Z,96597.33
2017-07-24T04:47:50.068Z,96590.75
2017-07-24T04:52:36.685Z,96582.19
2017-07-24T04:57:24.067Z,96566.27
2017-07-24T05:02:10.798Z,96556.95
2017-07-24T05:06:57.666Z,96544.42
2017-07-24T05:11:45.382Z,96562.68
2017-07-24T05:16:32.016Z,96573.01
2017-07-24T05:21:19.423Z,96562.53
2017-07-24T05:26:06.052Z,96550.91
2017-07-24T05:30:52.657Z,96523.88
2017-07-24T05:35:39.607Z,96503.98
2017-07-24T05:40:26.245Z,96493.96
2017-07-24T05:45:13.634Z,96488.53
2017-07-24T05:50:00.259Z,96481.31
2017-07-24T05:54:46.881Z,96485.19
2017-07-24T05:59:33.505Z,96500.52
2017-07-24T06:04:20.112Z,96496.65
2017-07-24T06:09:06.873Z,96492.80
2017-07-24T06:13:53.550Z,96480.95
2017-07-24T06:18:40.181Z,96467.75
2017-07-24T06:23:26.838Z,96459.84
2017-07-24T06:28:13.500Z,96467.08
2017-07-24T06:33:00.276Z,96464.20
2017-07-24T06:37:46.952Z,96461.88
2017-07-24T06:42:33.596Z,96471.45
2017-07-24T06:47:20.248Z,96456.13
2017-07-24T06:52:06.875Z,96454.63
2017-07-24T06:56:54.250Z,96454.89
2017-07-24T07:01:40.913Z,96442.06
2017-07-24T07:06:27.839Z,96424.97
2017-07-24T07:11:14.453Z,96409.48
2017-07-24T07:16:01.072Z,96403.58
2017-07-24T07:20:47.722Z,96405.32
2017-07-24T07:25:35.097Z,96414.18
2017-07-24T07:30:21.770Z,96419.09
2017-07-24T07:35:08.385Z,96417.47
2017-07-24T07:39:55.308Z,96412.09
2017-07-24T07:44:41.996Z,96400.84
2017-07-24T07:49:28.749Z,96397.86
2017-07-24T07:54:15.486Z,96395.08
2017-07-24T07:59:02.852Z,96391.20
2017-07-24T08:03:49.476Z,96404.45
2017-07-24T08:08:36.101Z,96389.78
2017-07-24T08:13:23.064Z,96384.48
2017-07-24T08:18:09.659Z,96390.41
2017-07-24T08:22:56.280Z,96387.19
2017-07-24T08:27:42.907Z,96376.71
2017-07-24T08:32:29.686Z,96368.44
2017-07-24T08:37:17.072Z,96376.53
2017-07-24T08:42:03.699Z,96376.09
2017-07-24T08:46:50.440Z,96376.01
2017-07-24T08:51:37.124Z,96386.92
2017-07-24T08:56:23.744Z,96391.95
2017-07-24T09:01:10.487Z,96392.28
2017-07-24T09:05:57.220Z,96390.48
2017-07-24T09:10:43.864Z,96384.58
2017-07-24T09:15:31.701Z,96384.16
2017-07-24T09:20:18.322Z,96382.90
2017-07-24T09:25:04.996Z,96374.97
2017-07-24T09:29:51.635Z,96372.00
2017-07-24T09:34:38.283Z,96367.59
2017-07-24T09:39:24.963Z,96367.58
2017-07-24T09:44:11.722Z,96364.13
2017-07-24T09:48:58.737Z,96369.34
2017-07-24T09:53:45.402Z,96369.50
2017-07-24T09:58:31.990Z,96362.19
2017-07-24T10:03:18.621Z,96358.20
2017-07-24T10:08:05.246Z,96356.44
2017-07-24T10:12:52.608Z,96344.85
2017-07-24T10:17:39.200Z,96339.98
2017-07-24T10:22:26.738Z,96346.42
2017-07-24T10:27:14.080Z,96344.03
2017-07-24T10:32:01.484Z,96351.27
2017-07-24T10:36:48.102Z,96366.68
2017-07-24T10:41:34.716Z,96358.28
2017-07-24T10:46:21.794Z,96352.88
2017-07-24T10:51:09.286Z,96343.67
2017-07-24T10:55:55.901Z,96327.75
2017-07-24T11:00:42.508Z,96328.31
2017-07-24T11:05:29.158Z,96317.87
2017-07-24T11:10:15.796Z,96321.45
2017-07-24T11:15:02.416Z,96321.55
2017-07-24T11:19:49.429Z,96325.15
2017-07-24T11:24:36.047Z,96315.36
2017-07-24T11:29:22.763Z,96321.52
2017-07-24T11:34:09.540Z,96311.84
2017-07-24T11:38:56.188Z,96318.81
2017-07-24T11:43:42.809Z,96313.20
2017-07-24T11:48:29.436Z,96310.50
2017-07-24T11:53:16.328Z,96311.56
2017-07-24T11:58:02.938Z,96306.31
2017-07-24T12:02:50.368Z,96297.14
2017-07-24T12:07:37.790Z,96301.98
2017-07-24T12:12:24.418Z,96301.27
2017-07-24T12:17:11.624Z,96301.19
2017-07-24T12:21:58.239Z,96297.06
2017-07-24T12:26:44.941Z,96292.66
2017-07-24T12:31:32.036Z,96297.88
2017-07-24T12:36:19.393Z,96295.27
2017-07-24T12:41:06.373Z,96300.02
2017-07-24T12:45:53.248Z,96298.40
2017-07-24T12:50:40.010Z,96304.44
2017-07-24T12:55:26.630Z,96309.25
2017-07-24T13:00:13.353Z,96307.67
2017-07-24T13:05:00.297Z,96306.14
2017-07-24T13:09:46.944Z,96311.12
2017-07-24T13:14:33.607Z,96321.42
2017-07-24T13:19:20.320Z,96323.61
2017-07-24T13:24:06.977Z,96326.53
2017-07-24T13:28:54.094Z,96331.34
2017-07-24T13:33:40.698Z,96331.69
2017-07-24T13:38:27.466Z,96337.97
2017-07-24T13:43:14.840Z,96335.33
2017-07-24T13:48:03.227Z,96326.38
2017-07-24T13:52:50.016Z,96323.84
2017-07-24T13:57:36.666Z,96336.17
2017-07-24T14:02:23.343Z,96333.55
2017-07-24T14:07:10.882Z,96335.78
2017-07-24T14:11:58.262Z,96334.73
2017-07-24T14:16:45.438Z,96341.04
2017-07-24T14:21:32.103Z,96341.77
2017-07-24T14:26:19.022Z,96349.84
2017-07-24T14:31:05.990Z,96355.27
2017-07-24T14:35:52.769Z,96356.78
2017-07-24T14:40:39.759Z,96359.09
2017-07-24T14:45:26.397Z,96362.59
2017-07-24T14:50:14.216Z,96390.31
2017-07-24T14:55:01.182Z,96403.73
2017-07-24T14:59:47.841Z,96400.77
2017-07-24T15:04:34.480Z,96399.80
2017-07-24T15:09:21.611Z,96404.66
2017-07-24T15:14:09.938Z,96406.95
2017-07-24T15:18:56.569Z,96394.77
2017-07-24T15:23:43.193Z,96400.64
2017-07-24T15:28:29.929Z,96403.16
2017-07-24T15:33:16.859Z,96416.23
2017-07-24T15:38:03.513Z,96411.22
2017-07-24T15:42:51.381Z,96417.98
2017-07-24T15:47:38.197Z,96415.75
2017-07-24T15:52:25.638Z,96414.41
2017-07-24T15:57:12.470Z,96414.52
2017-07-24T16:01:59.119Z,96423.53
2017-07-24T16:06:46.085Z,96416.23
2017-07-24T16:11:32.955Z,96413.94
2017-07-24T16:16:19.793Z,96411.23
2017-07-24T16:21:06.418Z,96404.95
2017-07-24T16:25:53.051Z,96410.03
2017-07-24T16:30:39.959Z,96406.83
2017-07-24T16:35:26.702Z,96411.86
2017-07-24T16:40:13.365Z,96420.78
2017-07-24T16:45:00.913Z,96419.30
2017-07-24T16:49:47.625Z,96409.75
2017-07-24T16:54:34.989Z,96416.64
2017-07-24T16:59:21.647Z,96420.69
2017-07-24T17:04:08.290Z,96426.24
2017-07-24T17:08:55.713Z,96435.07
2017-07-24T17:13:42.668Z,96448.95
2017-07-24T17:18:29.359Z,96458.70
2017-07-24T17:23:16.000Z,96464.99
2017-07-24T17:28:02.641Z,96471.76
2017-07-24T17:32:49.290Z,96465.95
2017-07-24T17:37:35.940Z,96478.91
2017-07-24T17:42:22.632Z,96475.45
2017-07-24T17:47:09.377Z,96471.59
2017-07-24T17:51:56.028Z,96468.85
2017-07-24T17:56:43.448Z,96464.53
2017-07-24T18:01:30.115Z,96469.20
2017-07-24T18:06:16.880Z,96462.61
2017-07-24T18:11:03.606Z,96454.74
2017-07-24T18:15:50.372Z,96449.86
2017-07-24T18:20:37.091Z,96448.56
2017-07-24T18:25:23.905Z,96449.49
2017-07-24T18:30:11.285Z,96457.72
2017-07-24T18:34:57.967Z,96463.91
2017-07-24T18:39:44.629Z,96465.57
2017-07-24T18:44:31.440Z,96463.53
2017-07-24T18:49:18.146Z,96453.23
2017-07-24T18:54:04.865Z,96455.54
2017-07-24T18:58:51.598Z,96457.20
2017-07-24T19:03:38.227Z,96466.25
2017-07-24T19:08:24.924Z,96472.39
2017-07-24T19:13:12.369Z,96477.37
2017-07-24T19:17:59.127Z,96475.53
2017-07-24T19:22:45.928Z,96486.09
2017-07-24T19:27:32.768Z,96481.56
2017-07-24T19:32:19.509Z,96479.50
2017-07-24T19:37:06.232Z,96483.84
2017-07-24T19:41:52.985Z,96484.22
2017-07-24T19:46:40.461Z,96485.45
2017-07-24T19:51:27.198Z,96477.22
2017-07-24T19:56:14.407Z,96470.82
2017-07-24T20:01:01.147Z,96464.27
2017-07-24T20:05:47.856Z,96472.53
2017-07-24T20:10:34.578Z,96486.59
2017-07-24T20:15:21.298Z,96506.20
2017-07-24T20:20:08.040Z,96534.09
2017-07-24T20:24:54.736Z,96543.95
2017-07-24T20:29:42.166Z,96544.28
2017-07-24T20:34:29.582Z,96527.15
2017-07-24T20:39:16.237Z,96517.64
2017-07-24T20:44:02.966Z,96526.48
2017-07-24T20:48:49.606Z,96524.14
2017-07-24T20:53:36.221Z,96530.42
2017-07-24T20:58:23.570Z,96534.64
2017-07-24T21:03:10.285Z,96519.50
2017-07-24T21:07:57.157Z,96518.67
2017-07-24T21:12:43.807Z,96518.02
2017-07-24T21:17:30.519Z,96506.65
2017-07-24T21:22:17.901Z,96509.42
2017-07-24T21:27:04.528Z,96511.98
2017-07-24T21:31:51.181Z,96508.63
2017-07-24T21:36:37.822Z,96509.17
2017-07-24T21:41:24.687Z,96508.37
2017-07-24T21:46:11.353Z,96513.98
2017-07-24T21:50:58.751Z,96514.26
2017-07-24T21:55:45.384Z,96516.02
2017-07-24T22:00:32.160Z,96516.77
2017-07-24T22:05:18.822Z,96521.90
2017-07-24T22:10:05.457Z,96524.13
2017-07-24T22:14:52.229Z,96526.83
2017-07-24T22:19:38.965Z,96512.25
2017-07-24T22:24:25.637Z,96510.08
2017-07-24T22:29:13.041Z,96502.92
2017-07-24T22:33:59.707Z,96512.45
2017-07-24T22:38:47.061Z,96498.08
2017-07-24T22:43:33.732Z,96502.05
2017-07-24T22:48:20.492Z,96507.93
2017-07-24T22:53:08.056Z,96509.91
2017-07-24T22:57:54.796Z,96505.96
2017-07-24T23:02:41.409Z,96506.22
2017-07-24T23:07:28.031Z,96499.02
2017-07-24T23:12:14.685Z,96493.69
2017-07-24T23:17:01.306Z,96485.45
2017-07-24T23:21:48.019Z,96491.52
2017-07-24T23:26:34.676Z,96478.70
2017-07-24T23:31:22.074Z,96467.60
2017-07-24T23:36:08.683Z,96475.67
2017-07-24T23:40:55.347Z,96463.13
2017-07-24T23:45:42.705Z,96466.69
2017-07-24T23:50:29.693Z,96474.03
2017-07-24T23:55:16.321Z,96475.67
